sensor_id;sensor_type;location;lat;lon;timestamp;P1;durP1;ratioP1;P2;durP2;ratioP2
7154;SDS011;3619;53.784;10.440;2023-02-28T00:00:08;3.50;;;3.40;;
7154;SDS011;3619;53.784;10.440;2023-02-28T00:02:36;3.23;;;3.13;;
7154;SDS011;3619;53.784;10.440;2023-02-28T00:05:03;3.93;;;3.83;;
7154;SDS011;3619;53.784;10.440;2023-02-28T00:07:33;3.47;;;3.37;;
7154;SDS011;3619;53.784;10.440;2023-02-28T00:10:00;3.37;;;3.27;;
7154;SDS011;3619;53.784;10.440;2023-02-28T00:12:27;3.63;;;3.53;;
7154;SDS011;3619;53.784;10.440;2023-02-28T00:14:55;3.10;;;3.00;;
7154;SDS011;3619;53.784;10.440;2023-02-28T00:17:22;3.37;;;3.27;;
7154;SDS011;3619;53.784;10.440;2023-02-28T00:19:50;3.00;;;2.90;;
7154;SDS011;3619;53.784;10.440;2023-02-28T00:22:18;3.10;;;3.00;;
7154;SDS011;3619;53.784;10.440;2023-02-28T00:24:45;3.23;;;3.13;;
7154;SDS011;3619;53.784;10.440;2023-02-28T00:27:13;3.37;;;3.27;;
7154;SDS011;3619;53.784;10.440;2023-02-28T00:29:43;2.67;;;2.57;;
7154;SDS011;3619;53.784;10.440;2023-02-28T00:32:11;3.07;;;2.97;;
7154;SDS011;3619;53.784;10.440;2023-02-28T00:34:49;3.03;;;2.93;;
7154;SDS011;3619;53.784;10.440;2023-02-28T00:37:18;3.40;;;3.30;;
7154;SDS011;3619;53.784;10.440;2023-02-28T00:39:47;3.47;;;3.37;;
7154;SDS011;3619;53.784;10.440;2023-02-28T00:42:17;3.03;;;2.93;;
7154;SDS011;3619;53.784;10.440;2023-02-28T00:44:46;3.67;;;3.57;;
7154;SDS011;3619;53.784;10.440;2023-02-28T00:47:14;3.43;;;3.33;;
7154;SDS011;3619;53.784;10.440;2023-02-28T00:49:41;3.43;;;3.33;;
7154;SDS011;3619;53.784;10.440;2023-02-28T00:52:08;3.33;;;3.23;;
7154;SDS011;3619;53.784;10.440;2023-02-28T00:54:35;3.87;;;3.77;;
7154;SDS011;3619;53.784;10.440;2023-02-28T00:57:02;4.50;;;4.33;;
7154;SDS011;3619;53.784;10.440;2023-02-28T00:59:29;3.53;;;3.43;;
7154;SDS011;3619;53.784;10.440;2023-02-28T01:01:55;3.20;;;3.10;;
7154;SDS011;3619;53.784;10.440;2023-02-28T01:04:24;3.67;;;3.57;;
7154;SDS011;3619;53.784;10.440;2023-02-28T01:06:53;4.43;;;4.27;;
7154;SDS011;3619;53.784;10.440;2023-02-28T01:09:19;3.07;;;2.97;;
7154;SDS011;3619;53.784;10.440;2023-02-28T01:11:46;3.77;;;3.67;;
7154;SDS011;3619;53.784;10.440;2023-02-28T01:14:14;3.30;;;3.20;;
7154;SDS011;3619;53.784;10.440;2023-02-28T01:16:42;3.30;;;3.20;;
7154;SDS011;3619;53.784;10.440;2023-02-28T01:19:09;3.70;;;3.60;;
7154;SDS011;3619;53.784;10.440;2023-02-28T01:21:37;3.53;;;3.43;;
7154;SDS011;3619;53.784;10.440;2023-02-28T01:24:04;3.77;;;3.67;;
7154;SDS011;3619;53.784;10.440;2023-02-28T01:26:35;3.20;;;3.10;;
7154;SDS011;3619;53.784;10.440;2023-02-28T01:29:02;3.83;;;3.73;;
7154;SDS011;3619;53.784;10.440;2023-02-28T01:31:31;3.87;;;3.77;;
7154;SDS011;3619;53.784;10.440;2023-02-28T01:33:58;3.67;;;3.57;;
7154;SDS011;3619;53.784;10.440;2023-02-28T01:36:25;3.60;;;3.50;;
7154;SDS011;3619;53.784;10.440;2023-02-28T01:38:53;4.77;;;4.57;;
7154;SDS011;3619;53.784;10.440;2023-02-28T01:41:21;4.03;;;3.93;;
7154;SDS011;3619;53.784;10.440;2023-02-28T01:43:54;3.40;;;3.30;;
7154;SDS011;3619;53.784;10.440;2023-02-28T01:46:24;3.33;;;3.23;;
7154;SDS011;3619;53.784;10.440;2023-02-28T01:48:51;3.80;;;3.70;;
7154;SDS011;3619;53.784;10.440;2023-02-28T01:51:23;3.20;;;3.10;;
7154;SDS011;3619;53.784;10.440;2023-02-28T01:53:55;4.47;;;4.30;;
7154;SDS011;3619;53.784;10.440;2023-02-28T01:56:26;5.53;;;5.33;;
7154;SDS011;3619;53.784;10.440;2023-02-28T01:58:56;4.10;;;4.00;;
7154;SDS011;3619;53.784;10.440;2023-02-28T02:01:23;4.37;;;4.27;;
7154;SDS011;3619;53.784;10.440;2023-02-28T02:03:53;3.77;;;3.67;;
7154;SDS011;3619;53.784;10.440;2023-02-28T02:06:28;4.13;;;4.03;;
7154;SDS011;3619;53.784;10.440;2023-02-28T02:09:00;4.03;;;3.93;;
7154;SDS011;3619;53.784;10.440;2023-02-28T02:11:28;3.57;;;3.47;;
7154;SDS011;3619;53.784;10.440;2023-02-28T02:14:02;4.50;;;4.30;;
7154;SDS011;3619;53.784;10.440;2023-02-28T02:16:57;4.33;;;4.23;;
7154;SDS011;3619;53.784;10.440;2023-02-28T02:25:45;4.70;;;4.50;;
7154;SDS011;3619;53.784;10.440;2023-02-28T02:28:34;4.83;;;4.63;;
7154;SDS011;3619;53.784;10.440;2023-02-28T02:31:33;4.67;;;4.47;;
7154;SDS011;3619;53.784;10.440;2023-02-28T02:37:09;3.97;;;3.87;;
7154;SDS011;3619;53.784;10.440;2023-02-28T02:39:42;4.87;;;4.67;;
7154;SDS011;3619;53.784;10.440;2023-02-28T02:42:19;4.77;;;4.57;;
7154;SDS011;3619;53.784;10.440;2023-02-28T02:44:52;3.53;;;3.43;;
7154;SDS011;3619;53.784;10.440;2023-02-28T02:47:26;4.97;;;4.77;;
7154;SDS011;3619;53.784;10.440;2023-02-28T02:49:59;4.00;;;3.90;;
7154;SDS011;3619;53.784;10.440;2023-02-28T02:52:32;4.53;;;4.33;;
7154;SDS011;3619;53.784;10.440;2023-02-28T02:55:03;4.17;;;4.07;;
7154;SDS011;3619;53.784;10.440;2023-02-28T02:57:32;3.60;;;3.50;;
7154;SDS011;3619;53.784;10.440;2023-02-28T03:00:03;4.57;;;4.37;;
7154;SDS011;3619;53.784;10.440;2023-02-28T03:02:34;4.33;;;4.23;;
7154;SDS011;3619;53.784;10.440;2023-02-28T03:05:06;3.97;;;3.87;;
7154;SDS011;3619;53.784;10.440;2023-02-28T03:07:40;3.90;;;3.80;;
7154;SDS011;3619;53.784;10.440;2023-02-28T03:13:06;3.93;;;3.83;;
7154;SDS011;3619;53.784;10.440;2023-02-28T03:15:43;3.97;;;3.87;;
7154;SDS011;3619;53.784;10.440;2023-02-28T03:18:24;4.03;;;3.93;;
7154;SDS011;3619;53.784;10.440;2023-02-28T03:21:00;4.70;;;4.50;;
7154;SDS011;3619;53.784;10.440;2023-02-28T03:23:38;3.77;;;3.67;;
7154;SDS011;3619;53.784;10.440;2023-02-28T03:26:13;4.07;;;3.97;;
7154;SDS011;3619;53.784;10.440;2023-02-28T03:28:47;3.53;;;3.43;;
7154;SDS011;3619;53.784;10.440;2023-02-28T03:31:23;4.33;;;4.23;;
7154;SDS011;3619;53.784;10.440;2023-02-28T03:33:58;4.47;;;4.30;;
7154;SDS011;3619;53.784;10.440;2023-02-28T03:36:30;4.17;;;4.07;;
7154;SDS011;3619;53.784;10.440;2023-02-28T03:39:09;4.10;;;4.00;;
7154;SDS011;3619;53.784;10.440;2023-02-28T03:41:41;3.97;;;3.87;;
7154;SDS011;3619;53.784;10.440;2023-02-28T03:44:13;4.07;;;3.97;;
7154;SDS011;3619;53.784;10.440;2023-02-28T03:46:44;4.10;;;4.00;;
7154;SDS011;3619;53.784;10.440;2023-02-28T03:49:16;4.43;;;4.27;;
7154;SDS011;3619;53.784;10.440;2023-02-28T03:51:51;3.00;;;2.90;;
7154;SDS011;3619;53.784;10.440;2023-02-28T03:54:21;4.50;;;4.30;;
7154;SDS011;3619;53.784;10.440;2023-02-28T03:56:53;3.80;;;3.70;;
7154;SDS011;3619;53.784;10.440;2023-02-28T03:59:27;3.87;;;3.77;;
7154;SDS011;3619;53.784;10.440;2023-02-28T04:02:00;4.00;;;3.90;;
7154;SDS011;3619;53.784;10.440;2023-02-28T04:04:29;4.27;;;4.17;;
7154;SDS011;3619;53.784;10.440;2023-02-28T04:07:02;4.80;;;4.60;;
7154;SDS011;3619;53.784;10.440;2023-02-28T04:09:30;5.23;;;5.03;;
7154;SDS011;3619;53.784;10.440;2023-02-28T04:11:57;4.63;;;4.43;;
7154;SDS011;3619;53.784;10.440;2023-02-28T04:14:24;4.50;;;4.30;;
7154;SDS011;3619;53.784;10.440;2023-02-28T04:16:52;4.10;;;4.00;;
7154;SDS011;3619;53.784;10.440;2023-02-28T04:19:19;4.03;;;3.93;;
7154;SDS011;3619;53.784;10.440;2023-02-28T04:21:46;3.70;;;3.60;;
7154;SDS011;3619;53.784;10.440;2023-02-28T04:24:16;4.07;;;3.97;;
7154;SDS011;3619;53.784;10.440;2023-02-28T04:26:44;3.20;;;3.10;;
7154;SDS011;3619;53.784;10.440;2023-02-28T04:29:13;3.73;;;3.63;;
7154;SDS011;3619;53.784;10.440;2023-02-28T04:31:43;4.60;;;4.40;;
7154;SDS011;3619;53.784;10.440;2023-02-28T04:34:10;4.27;;;4.17;;
7154;SDS011;3619;53.784;10.440;2023-02-28T04:36:37;3.83;;;3.73;;
7154;SDS011;3619;53.784;10.440;2023-02-28T04:39:07;3.73;;;3.63;;
7154;SDS011;3619;53.784;10.440;2023-02-28T04:41:36;4.67;;;4.47;;
7154;SDS011;3619;53.784;10.440;2023-02-28T04:44:03;4.03;;;3.93;;
7154;SDS011;3619;53.784;10.440;2023-02-28T04:46:32;4.23;;;4.13;;
7154;SDS011;3619;53.784;10.440;2023-02-28T04:49:00;3.90;;;3.80;;
7154;SDS011;3619;53.784;10.440;2023-02-28T04:51:27;4.50;;;4.33;;
7154;SDS011;3619;53.784;10.440;2023-02-28T04:53:54;3.60;;;3.50;;
7154;SDS011;3619;53.784;10.440;2023-02-28T04:56:21;3.83;;;3.73;;
7154;SDS011;3619;53.784;10.440;2023-02-28T04:58:49;3.83;;;3.73;;
7154;SDS011;3619;53.784;10.440;2023-02-28T05:01:19;4.63;;;4.43;;
7154;SDS011;3619;53.784;10.440;2023-02-28T05:03:48;4.30;;;4.20;;
7154;SDS011;3619;53.784;10.440;2023-02-28T05:06:19;4.17;;;4.07;;
7154;SDS011;3619;53.784;10.440;2023-02-28T05:08:49;5.87;;;5.67;;
7154;SDS011;3619;53.784;10.440;2023-02-28T05:11:18;4.63;;;4.43;;
7154;SDS011;3619;53.784;10.440;2023-02-28T05:13:47;5.30;;;5.10;;
7154;SDS011;3619;53.784;10.440;2023-02-28T05:16:16;4.67;;;4.47;;
7154;SDS011;3619;53.784;10.440;2023-02-28T05:18:44;4.93;;;4.73;;
7154;SDS011;3619;53.784;10.440;2023-02-28T05:21:25;4.47;;;4.30;;
7154;SDS011;3619;53.784;10.440;2023-02-28T05:23:54;5.20;;;5.00;;
7154;SDS011;3619;53.784;10.440;2023-02-28T05:26:22;4.13;;;4.03;;
7154;SDS011;3619;53.784;10.440;2023-02-28T05:29:19;5.00;;;4.80;;
7154;SDS011;3619;53.784;10.440;2023-02-28T05:31:49;5.03;;;4.83;;
7154;SDS011;3619;53.784;10.440;2023-02-28T05:34:16;6.10;;;5.90;;
7154;SDS011;3619;53.784;10.440;2023-02-28T05:36:43;5.90;;;5.70;;
7154;SDS011;3619;53.784;10.440;2023-02-28T05:39:10;5.87;;;5.67;;
7154;SDS011;3619;53.784;10.440;2023-02-28T05:41:39;5.23;;;5.03;;
7154;SDS011;3619;53.784;10.440;2023-02-28T05:44:08;5.50;;;5.30;;
7154;SDS011;3619;53.784;10.440;2023-02-28T05:46:35;5.60;;;5.40;;
7154;SDS011;3619;53.784;10.440;2023-02-28T05:49:03;4.10;;;4.00;;
7154;SDS011;3619;53.784;10.440;2023-02-28T05:51:29;5.07;;;4.87;;
7154;SDS011;3619;53.784;10.440;2023-02-28T05:54:00;4.17;;;4.07;;
7154;SDS011;3619;53.784;10.440;2023-02-28T05:56:27;4.97;;;4.77;;
7154;SDS011;3619;53.784;10.440;2023-02-28T05:58:54;5.43;;;5.23;;
7154;SDS011;3619;53.784;10.440;2023-02-28T06:01:34;5.47;;;5.27;;
7154;SDS011;3619;53.784;10.440;2023-02-28T06:04:04;5.20;;;5.00;;
7154;SDS011;3619;53.784;10.440;2023-02-28T06:06:32;4.70;;;4.50;;
7154;SDS011;3619;53.784;10.440;2023-02-28T06:09:00;6.13;;;5.93;;
7154;SDS011;3619;53.784;10.440;2023-02-28T06:11:27;6.37;;;6.17;;
7154;SDS011;3619;53.784;10.440;2023-02-28T06:13:54;5.40;;;5.20;;
7154;SDS011;3619;53.784;10.440;2023-02-28T06:16:25;6.33;;;6.13;;
7154;SDS011;3619;53.784;10.440;2023-02-28T06:18:54;6.00;;;5.80;;
7154;SDS011;3619;53.784;10.440;2023-02-28T06:21:23;6.30;;;6.10;;
7154;SDS011;3619;53.784;10.440;2023-02-28T06:23:49;6.07;;;5.87;;
7154;SDS011;3619;53.784;10.440;2023-02-28T06:26:16;6.63;;;6.43;;
7154;SDS011;3619;53.784;10.440;2023-02-28T06:28:43;5.77;;;5.57;;
7154;SDS011;3619;53.784;10.440;2023-02-28T06:31:10;5.47;;;5.27;;
7154;SDS011;3619;53.784;10.440;2023-02-28T06:33:50;6.37;;;6.17;;
7154;SDS011;3619;53.784;10.440;2023-02-28T06:36:20;5.97;;;5.77;;
7154;SDS011;3619;53.784;10.440;2023-02-28T06:38:47;7.33;;;7.03;;
7154;SDS011;3619;53.784;10.440;2023-02-28T06:41:19;6.00;;;5.80;;
7154;SDS011;3619;53.784;10.440;2023-02-28T06:43:46;6.70;;;6.50;;
7154;SDS011;3619;53.784;10.440;2023-02-28T06:46:13;6.57;;;6.37;;
7154;SDS011;3619;53.784;10.440;2023-02-28T06:48:40;6.43;;;6.23;;
7154;SDS011;3619;53.784;10.440;2023-02-28T06:51:09;6.53;;;6.33;;
7154;SDS011;3619;53.784;10.440;2023-02-28T06:53:42;5.93;;;5.73;;
7154;SDS011;3619;53.784;10.440;2023-02-28T06:56:11;6.73;;;6.53;;
7154;SDS011;3619;53.784;10.440;2023-02-28T06:58:39;6.00;;;5.80;;
7154;SDS011;3619;53.784;10.440;2023-02-28T07:01:09;6.30;;;6.10;;
7154;SDS011;3619;53.784;10.440;2023-02-28T07:03:35;5.87;;;5.67;;
7154;SDS011;3619;53.784;10.440;2023-02-28T07:06:02;7.20;;;6.90;;
7154;SDS011;3619;53.784;10.440;2023-02-28T07:08:35;5.33;;;5.13;;
7154;SDS011;3619;53.784;10.440;2023-02-28T07:11:03;6.20;;;6.00;;
7154;SDS011;3619;53.784;10.440;2023-02-28T07:13:30;7.47;;;7.17;;
7154;SDS011;3619;53.784;10.440;2023-02-28T07:15:58;6.97;;;6.73;;
7154;SDS011;3619;53.784;10.440;2023-02-28T07:18:27;6.57;;;6.37;;
7154;SDS011;3619;53.784;10.440;2023-02-28T07:20:54;6.10;;;5.90;;
7154;SDS011;3619;53.784;10.440;2023-02-28T07:23:22;6.33;;;6.13;;
7154;SDS011;3619;53.784;10.440;2023-02-28T07:25:49;6.53;;;6.33;;
7154;SDS011;3619;53.784;10.440;2023-02-28T07:28:20;6.00;;;5.80;;
7154;SDS011;3619;53.784;10.440;2023-02-28T07:30:47;5.83;;;5.63;;
7154;SDS011;3619;53.784;10.440;2023-02-28T07:33:13;6.07;;;5.87;;
7154;SDS011;3619;53.784;10.440;2023-02-28T07:35:40;5.27;;;5.07;;
7154;SDS011;3619;53.784;10.440;2023-02-28T07:38:07;6.40;;;6.20;;
7154;SDS011;3619;53.784;10.440;2023-02-28T07:40:35;5.57;;;5.37;;
7154;SDS011;3619;53.784;10.440;2023-02-28T07:43:02;5.70;;;5.50;;
7154;SDS011;3619;53.784;10.440;2023-02-28T07:45:31;5.33;;;5.13;;
7154;SDS011;3619;53.784;10.440;2023-02-28T07:47:59;5.77;;;5.57;;
7154;SDS011;3619;53.784;10.440;2023-02-28T07:50:26;4.70;;;4.50;;
7154;SDS011;3619;53.784;10.440;2023-02-28T07:52:55;3.90;;;3.80;;
7154;SDS011;3619;53.784;10.440;2023-02-28T07:55:22;4.70;;;4.50;;
7154;SDS011;3619;53.784;10.440;2023-02-28T07:57:49;4.90;;;4.70;;
7154;SDS011;3619;53.784;10.440;2023-02-28T08:00:16;4.77;;;4.57;;
7154;SDS011;3619;53.784;10.440;2023-02-28T08:02:44;3.83;;;3.73;;
7154;SDS011;3619;53.784;10.440;2023-02-28T08:05:11;4.77;;;4.57;;
7154;SDS011;3619;53.784;10.440;2023-02-28T08:07:38;4.27;;;4.17;;
7154;SDS011;3619;53.784;10.440;2023-02-28T08:10:05;4.63;;;4.43;;
7154;SDS011;3619;53.784;10.440;2023-02-28T08:12:34;4.03;;;3.93;;
7154;SDS011;3619;53.784;10.440;2023-02-28T08:15:03;4.80;;;4.60;;
7154;SDS011;3619;53.784;10.440;2023-02-28T08:17:30;3.53;;;3.43;;
7154;SDS011;3619;53.784;10.440;2023-02-28T08:19:58;3.40;;;3.30;;
7154;SDS011;3619;53.784;10.440;2023-02-28T08:22:25;4.03;;;3.93;;
7154;SDS011;3619;53.784;10.440;2023-02-28T08:24:53;3.93;;;3.83;;
7154;SDS011;3619;53.784;10.440;2023-02-28T08:27:20;3.50;;;3.40;;
7154;SDS011;3619;53.784;10.440;2023-02-28T08:29:47;2.90;;;2.80;;
7154;SDS011;3619;53.784;10.440;2023-02-28T08:32:14;3.70;;;3.60;;
7154;SDS011;3619;53.784;10.440;2023-02-28T08:34:41;3.03;;;2.93;;
7154;SDS011;3619;53.784;10.440;2023-02-28T08:37:10;2.47;;;2.37;;
7154;SDS011;3619;53.784;10.440;2023-02-28T08:39:37;2.97;;;2.87;;
7154;SDS011;3619;53.784;10.440;2023-02-28T08:42:04;2.83;;;2.73;;
7154;SDS011;3619;53.784;10.440;2023-02-28T08:44:31;2.47;;;2.37;;
7154;SDS011;3619;53.784;10.440;2023-02-28T08:46:57;2.67;;;2.57;;
7154;SDS011;3619;53.784;10.440;2023-02-28T08:49:24;2.30;;;2.20;;
7154;SDS011;3619;53.784;10.440;2023-02-28T08:51:51;2.50;;;2.40;;
7154;SDS011;3619;53.784;10.440;2023-02-28T08:54:20;2.30;;;2.20;;
7154;SDS011;3619;53.784;10.440;2023-02-28T08:56:47;2.20;;;2.10;;
7154;SDS011;3619;53.784;10.440;2023-02-28T08:59:15;2.30;;;2.20;;
7154;SDS011;3619;53.784;10.440;2023-02-28T09:01:41;2.07;;;1.97;;
7154;SDS011;3619;53.784;10.440;2023-02-28T09:04:09;2.30;;;2.20;;
7154;SDS011;3619;53.784;10.440;2023-02-28T09:06:36;2.23;;;2.13;;
7154;SDS011;3619;53.784;10.440;2023-02-28T09:09:03;3.13;;;3.03;;
7154;SDS011;3619;53.784;10.440;2023-02-28T09:11:33;2.87;;;2.77;;
7154;SDS011;3619;53.784;10.440;2023-02-28T09:14:01;2.00;;;1.90;;
7154;SDS011;3619;53.784;10.440;2023-02-28T09:16:29;2.60;;;2.50;;
7154;SDS011;3619;53.784;10.440;2023-02-28T09:18:57;2.50;;;2.40;;
7154;SDS011;3619;53.784;10.440;2023-02-28T09:21:24;2.13;;;2.03;;
7154;SDS011;3619;53.784;10.440;2023-02-28T09:23:51;2.50;;;2.40;;
7154;SDS011;3619;53.784;10.440;2023-02-28T09:26:19;2.13;;;2.03;;
7154;SDS011;3619;53.784;10.440;2023-02-28T09:28:48;2.00;;;1.90;;
7154;SDS011;3619;53.784;10.440;2023-02-28T09:31:16;2.37;;;2.27;;
7154;SDS011;3619;53.784;10.440;2023-02-28T09:33:45;2.20;;;2.10;;
7154;SDS011;3619;53.784;10.440;2023-02-28T09:36:12;2.30;;;2.20;;
7154;SDS011;3619;53.784;10.440;2023-02-28T09:38:39;2.43;;;2.33;;
7154;SDS011;3619;53.784;10.440;2023-02-28T09:41:09;2.40;;;2.30;;
7154;SDS011;3619;53.784;10.440;2023-02-28T09:43:40;2.20;;;2.10;;
7154;SDS011;3619;53.784;10.440;2023-02-28T09:46:14;2.30;;;2.20;;
7154;SDS011;3619;53.784;10.440;2023-02-28T09:48:48;2.10;;;2.00;;
7154;SDS011;3619;53.784;10.440;2023-02-28T09:51:23;2.20;;;2.10;;
7154;SDS011;3619;53.784;10.440;2023-02-28T09:53:59;2.20;;;2.10;;
7154;SDS011;3619;53.784;10.440;2023-02-28T09:56:28;2.30;;;2.20;;
7154;SDS011;3619;53.784;10.440;2023-02-28T09:58:58;1.97;;;1.90;;
7154;SDS011;3619;53.784;10.440;2023-02-28T10:01:31;2.57;;;2.47;;
7154;SDS011;3619;53.784;10.440;2023-02-28T10:04:05;2.20;;;2.10;;
7154;SDS011;3619;53.784;10.440;2023-02-28T10:06:41;2.17;;;2.07;;
7154;SDS011;3619;53.784;10.440;2023-02-28T10:09:13;2.17;;;2.07;;
7154;SDS011;3619;53.784;10.440;2023-02-28T10:11:47;2.37;;;2.27;;
7154;SDS011;3619;53.784;10.440;2023-02-28T10:14:18;2.20;;;2.10;;
7154;SDS011;3619;53.784;10.440;2023-02-28T10:16:53;2.23;;;2.13;;
7154;SDS011;3619;53.784;10.440;2023-02-28T10:19:23;2.43;;;2.33;;
7154;SDS011;3619;53.784;10.440;2023-02-28T10:21:58;2.50;;;2.40;;
7154;SDS011;3619;53.784;10.440;2023-02-28T10:24:30;2.40;;;2.30;;
7154;SDS011;3619;53.784;10.440;2023-02-28T10:27:01;2.50;;;2.40;;
7154;SDS011;3619;53.784;10.440;2023-02-28T10:29:37;2.30;;;2.20;;
7154;SDS011;3619;53.784;10.440;2023-02-28T10:32:10;2.50;;;2.40;;
7154;SDS011;3619;53.784;10.440;2023-02-28T10:34:40;2.20;;;2.10;;
7154;SDS011;3619;53.784;10.440;2023-02-28T10:37:09;2.43;;;2.33;;
7154;SDS011;3619;53.784;10.440;2023-02-28T10:39:38;2.80;;;2.70;;
7154;SDS011;3619;53.784;10.440;2023-02-28T10:42:22;2.03;;;1.93;;
7154;SDS011;3619;53.784;10.440;2023-02-28T10:45:04;2.10;;;2.00;;
7154;SDS011;3619;53.784;10.440;2023-02-28T10:47:35;2.40;;;2.30;;
7154;SDS011;3619;53.784;10.440;2023-02-28T10:52:54;2.20;;;2.10;;
7154;SDS011;3619;53.784;10.440;2023-02-28T10:55:22;2.30;;;2.20;;
7154;SDS011;3619;53.784;10.440;2023-02-28T10:57:51;1.83;;;1.83;;
7154;SDS011;3619;53.784;10.440;2023-02-28T11:00:21;2.13;;;2.03;;
7154;SDS011;3619;53.784;10.440;2023-02-28T11:02:54;1.93;;;1.87;;
7154;SDS011;3619;53.784;10.440;2023-02-28T11:05:25;2.30;;;2.20;;
7154;SDS011;3619;53.784;10.440;2023-02-28T11:07:54;2.20;;;2.10;;
7154;SDS011;3619;53.784;10.440;2023-02-28T11:10:24;2.60;;;2.50;;
7154;SDS011;3619;53.784;10.440;2023-02-28T11:12:55;2.47;;;2.37;;
7154;SDS011;3619;53.784;10.440;2023-02-28T11:15:26;2.40;;;2.30;;
7154;SDS011;3619;53.784;10.440;2023-02-28T11:17:56;2.30;;;2.20;;
7154;SDS011;3619;53.784;10.440;2023-02-28T11:20:25;2.50;;;2.40;;
7154;SDS011;3619;53.784;10.440;2023-02-28T11:22:57;2.17;;;2.07;;
7154;SDS011;3619;53.784;10.440;2023-02-28T11:25:28;2.00;;;1.90;;
7154;SDS011;3619;53.784;10.440;2023-02-28T11:27:58;2.00;;;1.90;;
7154;SDS011;3619;53.784;10.440;2023-02-28T11:30:31;2.00;;;1.90;;
7154;SDS011;3619;53.784;10.440;2023-02-28T11:33:10;1.80;;;1.80;;
7154;SDS011;3619;53.784;10.440;2023-02-28T11:35:47;1.80;;;1.80;;
7154;SDS011;3619;53.784;10.440;2023-02-28T11:38:17;1.97;;;1.90;;
7154;SDS011;3619;53.784;10.440;2023-02-28T11:40:46;2.13;;;2.03;;
7154;SDS011;3619;53.784;10.440;2023-02-28T11:43:22;1.80;;;1.80;;
7154;SDS011;3619;53.784;10.440;2023-02-28T11:46:06;2.00;;;1.90;;
7154;SDS011;3619;53.784;10.440;2023-02-28T11:48:47;1.63;;;1.63;;
7154;SDS011;3619;53.784;10.440;2023-02-28T11:51:22;2.20;;;2.10;;
7154;SDS011;3619;53.784;10.440;2023-02-28T11:54:00;2.07;;;1.97;;
7154;SDS011;3619;53.784;10.440;2023-02-28T11:56:39;1.70;;;1.70;;
7154;SDS011;3619;53.784;10.440;2023-02-28T11:59:18;2.43;;;2.33;;
7154;SDS011;3619;53.784;10.440;2023-02-28T12:02:02;2.10;;;2.00;;
7154;SDS011;3619;53.784;10.440;2023-02-28T12:04:53;1.57;;;1.57;;
7154;SDS011;3619;53.784;10.440;2023-02-28T12:07:46;1.90;;;1.83;;
7154;SDS011;3619;53.784;10.440;2023-02-28T12:10:20;1.60;;;1.60;;
7154;SDS011;3619;53.784;10.440;2023-02-28T12:12:51;1.43;;;1.43;;
7154;SDS011;3619;53.784;10.440;2023-02-28T12:18:31;1.60;;;1.60;;
7154;SDS011;3619;53.784;10.440;2023-02-28T12:21:14;1.50;;;1.50;;
7154;SDS011;3619;53.784;10.440;2023-02-28T12:23:52;1.67;;;1.67;;
7154;SDS011;3619;53.784;10.440;2023-02-28T12:26:30;1.60;;;1.60;;
7154;SDS011;3619;53.784;10.440;2023-02-28T12:29:04;1.43;;;1.43;;
7154;SDS011;3619;53.784;10.440;2023-02-28T12:31:38;1.50;;;1.50;;
7154;SDS011;3619;53.784;10.440;2023-02-28T12:34:09;1.57;;;1.57;;
7154;SDS011;3619;53.784;10.440;2023-02-28T12:36:40;1.50;;;1.50;;
7154;SDS011;3619;53.784;10.440;2023-02-28T12:39:10;1.60;;;1.60;;
7154;SDS011;3619;53.784;10.440;2023-02-28T12:41:45;1.70;;;1.70;;
7154;SDS011;3619;53.784;10.440;2023-02-28T12:44:18;1.93;;;1.87;;
7154;SDS011;3619;53.784;10.440;2023-02-28T12:46:50;1.30;;;1.30;;
7154;SDS011;3619;53.784;10.440;2023-02-28T12:49:21;1.67;;;1.67;;
7154;SDS011;3619;53.784;10.440;2023-02-28T12:51:53;1.43;;;1.43;;
7154;SDS011;3619;53.784;10.440;2023-02-28T12:54:22;1.53;;;1.53;;
7154;SDS011;3619;53.784;10.440;2023-02-28T12:56:56;1.30;;;1.30;;
7154;SDS011;3619;53.784;10.440;2023-02-28T12:59:31;1.80;;;1.80;;
7154;SDS011;3619;53.784;10.440;2023-02-28T13:02:22;1.60;;;1.60;;
7154;SDS011;3619;53.784;10.440;2023-02-28T13:08:33;1.43;;;1.43;;
7154;SDS011;3619;53.784;10.440;2023-02-28T13:11:37;1.27;;;1.27;;
7154;SDS011;3619;53.784;10.440;2023-02-28T13:14:19;1.63;;;1.63;;
7154;SDS011;3619;53.784;10.440;2023-02-28T13:16:56;1.40;;;1.40;;
7154;SDS011;3619;53.784;10.440;2023-02-28T13:19:26;1.60;;;1.60;;
7154;SDS011;3619;53.784;10.440;2023-02-28T13:21:56;1.70;;;1.70;;
7154;SDS011;3619;53.784;10.440;2023-02-28T13:27:32;1.43;;;1.43;;
7154;SDS011;3619;53.784;10.440;2023-02-28T13:30:02;1.77;;;1.77;;
7154;SDS011;3619;53.784;10.440;2023-02-28T13:33:17;1.70;;;1.70;;
7154;SDS011;3619;53.784;10.440;2023-02-28T13:35:50;1.67;;;1.67;;
7154;SDS011;3619;53.784;10.440;2023-02-28T13:38:41;1.70;;;1.70;;
7154;SDS011;3619;53.784;10.440;2023-02-28T13:44:13;1.90;;;1.80;;
7154;SDS011;3619;53.784;10.440;2023-02-28T13:49:50;1.47;;;1.47;;
7154;SDS011;3619;53.784;10.440;2023-02-28T13:52:20;1.40;;;1.40;;
7154;SDS011;3619;53.784;10.440;2023-02-28T13:54:54;1.70;;;1.70;;
7154;SDS011;3619;53.784;10.440;2023-02-28T13:57:30;1.80;;;1.80;;
7154;SDS011;3619;53.784;10.440;2023-02-28T14:00:13;1.60;;;1.60;;
7154;SDS011;3619;53.784;10.440;2023-02-28T14:03:01;2.03;;;1.93;;
7154;SDS011;3619;53.784;10.440;2023-02-28T14:05:40;1.80;;;1.80;;
7154;SDS011;3619;53.784;10.440;2023-02-28T14:08:10;1.93;;;1.87;;
7154;SDS011;3619;53.784;10.440;2023-02-28T14:10:44;2.43;;;2.33;;
7154;SDS011;3619;53.784;10.440;2023-02-28T14:13:17;2.13;;;2.03;;
7154;SDS011;3619;53.784;10.440;2023-02-28T14:16:09;2.23;;;2.13;;
7154;SDS011;3619;53.784;10.440;2023-02-28T14:18:38;2.33;;;2.23;;
7154;SDS011;3619;53.784;10.440;2023-02-28T14:21:09;2.20;;;2.10;;
7154;SDS011;3619;53.784;10.440;2023-02-28T14:23:43;2.10;;;2.00;;
7154;SDS011;3619;53.784;10.440;2023-02-28T14:26:43;2.07;;;1.97;;
7154;SDS011;3619;53.784;10.440;2023-02-28T14:29:29;2.53;;;2.43;;
7154;SDS011;3619;53.784;10.440;2023-02-28T14:32:05;2.20;;;2.10;;
7154;SDS011;3619;53.784;10.440;2023-02-28T14:34:41;2.10;;;2.00;;
7154;SDS011;3619;53.784;10.440;2023-02-28T14:37:16;2.40;;;2.30;;
7154;SDS011;3619;53.784;10.440;2023-02-28T14:39:46;2.10;;;2.00;;
7154;SDS011;3619;53.784;10.440;2023-02-28T14:45:01;1.87;;;1.83;;
7154;SDS011;3619;53.784;10.440;2023-02-28T14:47:32;2.23;;;2.13;;
7154;SDS011;3619;53.784;10.440;2023-02-28T14:50:04;2.27;;;2.17;;
7154;SDS011;3619;53.784;10.440;2023-02-28T14:52:32;2.20;;;2.10;;
7154;SDS011;3619;53.784;10.440;2023-02-28T14:54:59;2.33;;;2.23;;
7154;SDS011;3619;53.784;10.440;2023-02-28T14:57:29;2.30;;;2.20;;
7154;SDS011;3619;53.784;10.440;2023-02-28T14:59:58;2.40;;;2.30;;
7154;SDS011;3619;53.784;10.440;2023-02-28T15:02:29;2.20;;;2.10;;
7154;SDS011;3619;53.784;10.440;2023-02-28T15:05:00;2.30;;;2.20;;
7154;SDS011;3619;53.784;10.440;2023-02-28T15:07:36;2.37;;;2.27;;
7154;SDS011;3619;53.784;10.440;2023-02-28T15:10:07;2.40;;;2.30;;
7154;SDS011;3619;53.784;10.440;2023-02-28T15:12:40;2.00;;;1.90;;
7154;SDS011;3619;53.784;10.440;2023-02-28T15:15:15;2.17;;;2.07;;
7154;SDS011;3619;53.784;10.440;2023-02-28T15:17:44;2.10;;;2.00;;
7154;SDS011;3619;53.784;10.440;2023-02-28T15:20:13;2.20;;;2.10;;
7154;SDS011;3619;53.784;10.440;2023-02-28T15:22:42;2.10;;;2.00;;
7154;SDS011;3619;53.784;10.440;2023-02-28T15:25:10;2.40;;;2.30;;
7154;SDS011;3619;53.784;10.440;2023-02-28T15:27:44;2.10;;;2.00;;
7154;SDS011;3619;53.784;10.440;2023-02-28T15:30:17;2.30;;;2.20;;
7154;SDS011;3619;53.784;10.440;2023-02-28T15:32:47;2.20;;;2.10;;
7154;SDS011;3619;53.784;10.440;2023-02-28T15:35:31;2.17;;;2.07;;
7154;SDS011;3619;53.784;10.440;2023-02-28T15:38:01;2.20;;;2.10;;
7154;SDS011;3619;53.784;10.440;2023-02-28T15:40:31;2.07;;;1.97;;
7154;SDS011;3619;53.784;10.440;2023-02-28T15:43:05;2.50;;;2.40;;
7154;SDS011;3619;53.784;10.440;2023-02-28T15:45:36;2.57;;;2.47;;
7154;SDS011;3619;53.784;10.440;2023-02-28T15:48:09;2.47;;;2.37;;
7154;SDS011;3619;53.784;10.440;2023-02-28T15:50:41;2.20;;;2.10;;
7154;SDS011;3619;53.784;10.440;2023-02-28T15:53:12;2.47;;;2.37;;
7154;SDS011;3619;53.784;10.440;2023-02-28T15:55:41;2.30;;;2.20;;
7154;SDS011;3619;53.784;10.440;2023-02-28T15:58:11;2.30;;;2.20;;